createdAt,value
2022-10-15T00:01:46.256Z,14.56
2022-10-15T00:04:13.940Z,14.57
2022-10-15T00:06:41.975Z,14.59
2022-10-15T00:09:09.596Z,14.61
2022-10-15T00:11:37.326Z,14.60
2022-10-15T00:14:04.967Z,14.61
2022-10-15T00:16:32.566Z,14.62
2022-10-15T00:19:00.218Z,14.64
2022-10-15T00:21:28.031Z,14.65
2022-10-15T00:23:55.981Z,14.65
2022-10-15T00:26:23.747Z,14.65
2022-10-15T00:28:51.985Z,14.67
2022-10-15T00:31:20.291Z,14.64
2022-10-15T00:33:48.132Z,14.63
2022-10-15T00:36:16.114Z,14.64
2022-10-15T00:38:43.678Z,14.63
2022-10-15T00:41:11.338Z,14.65
2022-10-15T00:43:38.952Z,14.65
2022-10-15T00:46:06.802Z,14.67
2022-10-15T00:48:34.631Z,14.66
2022-10-15T00:51:02.815Z,14.65
2022-10-15T00:53:30.520Z,14.65
2022-10-15T00:55:58.211Z,14.63
2022-10-15T00:58:28.457Z,14.61
2022-10-15T01:00:56.506Z,14.62
2022-10-15T01:03:24.157Z,14.62
2022-10-15T01:05:51.742Z,14.62
2022-10-15T01:08:19.317Z,14.63
2022-10-15T01:10:47.375Z,14.63
2022-10-15T01:13:15.802Z,14.61
2022-10-15T01:15:43.367Z,14.58
2022-10-15T01:18:10.949Z,14.56
2022-10-15T01:20:38.516Z,14.50
2022-10-15T01:23:06.296Z,14.46
2022-10-15T01:25:34.234Z,14.43
2022-10-15T01:28:01.818Z,14.36
2022-10-15T01:30:29.399Z,14.34
2022-10-15T01:32:57.084Z,14.30
2022-10-15T01:35:26.217Z,14.27
2022-10-15T01:37:54.133Z,14.23
2022-10-15T01:40:21.816Z,14.19
2022-10-15T01:42:49.506Z,14.16
2022-10-15T01:45:17.047Z,14.15
2022-10-15T01:47:44.655Z,14.19
2022-10-15T01:50:12.608Z,14.23
2022-10-15T01:52:40.230Z,14.26
2022-10-15T01:55:07.869Z,14.24
2022-10-15T01:57:35.788Z,14.22
2022-10-15T02:00:04.447Z,14.22
2022-10-15T02:02:32.393Z,14.23
2022-10-15T02:04:59.965Z,14.24
2022-10-15T02:07:27.504Z,14.24
2022-10-15T02:09:55.087Z,14.23
2022-10-15T02:12:23.055Z,14.21
2022-10-15T02:14:51.129Z,14.20
2022-10-15T02:17:18.755Z,14.19
2022-10-15T02:19:46.465Z,14.18
2022-10-15T02:22:14.096Z,14.18
2022-10-15T02:24:41.935Z,14.19
2022-10-15T02:27:09.876Z,14.20
2022-10-15T02:29:37.992Z,14.19
2022-10-15T02:32:05.609Z,14.17
2022-10-15T02:34:33.155Z,14.14
2022-10-15T02:37:00.729Z,14.09
2022-10-15T02:39:28.686Z,14.08
2022-10-15T02:41:56.242Z,14.08
2022-10-15T02:44:23.784Z,14.10
2022-10-15T02:46:51.391Z,14.12
2022-10-15T02:49:18.952Z,14.15
2022-10-15T02:51:46.968Z,14.15
2022-10-15T02:54:14.709Z,14.14
2022-10-15T02:56:42.281Z,14.13
2022-10-15T02:59:09.857Z,14.09
2022-10-15T03:01:39.416Z,14.07
2022-10-15T03:04:07.361Z,14.03
2022-10-15T03:06:34.928Z,13.97
2022-10-15T03:09:02.556Z,13.92
2022-10-15T03:11:30.099Z,13.91
2022-10-15T03:13:57.842Z,13.91
2022-10-15T03:16:26.909Z,13.91
2022-10-15T03:18:54.454Z,13.91
2022-10-15T03:21:22.019Z,13.90
2022-10-15T03:23:50.070Z,13.91
2022-10-15T03:26:17.806Z,13.92
2022-10-15T03:28:45.830Z,13.91
2022-10-15T03:31:14.373Z,13.89
2022-10-15T03:33:41.917Z,13.86
2022-10-15T03:36:09.492Z,13.84
2022-10-15T03:38:37.305Z,13.79
2022-10-15T03:41:05.255Z,13.74
2022-10-15T03:43:32.803Z,13.70
2022-10-15T03:46:00.426Z,13.66
2022-10-15T03:48:27.957Z,13.62
2022-10-15T03:50:55.736Z,13.59
2022-10-15T03:53:23.520Z,13.55
2022-10-15T03:55:51.067Z,13.52
2022-10-15T03:58:18.621Z,13.48
2022-10-15T04:00:46.228Z,13.45
2022-10-15T04:03:13.991Z,13.42
2022-10-15T04:05:42.367Z,13.39
2022-10-15T04:08:09.964Z,13.36
2022-10-15T04:10:37.514Z,13.30
2022-10-15T04:13:05.065Z,13.23
2022-10-15T04:15:32.869Z,13.17
2022-10-15T04:18:00.464Z,13.11
2022-10-15T04:20:28.002Z,13.06
2022-10-15T04:22:55.592Z,13.02
2022-10-15T04:25:23.153Z,12.96
2022-10-15T04:27:53.464Z,12.90
2022-10-15T04:30:21.109Z,12.87
2022-10-15T04:32:48.634Z,12.85
2022-10-15T04:35:16.188Z,12.86
2022-10-15T04:37:43.782Z,12.88
2022-10-15T04:40:11.347Z,12.90
2022-10-15T04:42:39.548Z,12.89
2022-10-15T04:45:07.154Z,12.88
2022-10-15T04:47:34.716Z,12.85
2022-10-15T04:50:02.262Z,12.83
2022-10-15T04:52:29.879Z,12.80
2022-10-15T04:54:59.082Z,12.80
2022-10-15T04:57:27.121Z,12.78
2022-10-15T04:59:57.652Z,12.79
2022-10-15T05:02:25.582Z,12.77
2022-10-15T05:04:53.217Z,12.79
2022-10-15T05:07:21.420Z,12.77
2022-10-15T05:09:49.193Z,12.74
2022-10-15T05:12:20.269Z,12.73
2022-10-15T05:14:47.862Z,12.73
2022-10-15T05:17:15.603Z,12.72
2022-10-15T05:19:43.548Z,12.72
2022-10-15T05:22:11.163Z,12.72
2022-10-15T05:24:38.753Z,12.72
2022-10-15T05:27:06.325Z,12.70
2022-10-15T05:29:34.130Z,12.69
2022-10-15T05:32:02.112Z,12.68
2022-10-15T05:34:30.771Z,12.66
2022-10-15T05:36:58.442Z,12.64
2022-10-15T05:39:25.993Z,12.58
2022-10-15T05:41:53.785Z,12.56
2022-10-15T05:44:21.712Z,12.51
2022-10-15T05:46:49.262Z,12.43
2022-10-15T05:49:16.855Z,12.38
2022-10-15T05:51:44.464Z,12.33
2022-10-15T05:54:12.301Z,12.24
2022-10-15T05:56:40.744Z,12.17
2022-10-15T05:59:08.339Z,12.08
2022-10-15T06:01:37.903Z,12.01
2022-10-15T06:04:05.552Z,11.97
2022-10-15T06:06:33.312Z,11.92
2022-10-15T06:09:02.107Z,11.89
2022-10-15T06:11:29.769Z,11.89
2022-10-15T06:13:57.401Z,11.89
2022-10-15T06:16:25.044Z,11.91
2022-10-15T06:18:52.853Z,11.95
2022-10-15T06:21:20.536Z,12.03
2022-10-15T06:23:48.120Z,12.16
2022-10-15T06:26:15.717Z,12.28
2022-10-15T06:28:43.404Z,12.37
2022-10-15T06:31:11.312Z,12.49
2022-10-15T06:33:39.345Z,12.61
2022-10-15T06:36:06.969Z,12.70
2022-10-15T06:38:34.550Z,12.79
2022-10-15T06:41:02.565Z,12.87
2022-10-15T06:43:32.644Z,12.94
2022-10-15T06:46:02.936Z,13.03
2022-10-15T06:48:30.585Z,13.09
2022-10-15T06:50:58.144Z,13.16
2022-10-15T06:53:25.760Z,13.23
2022-10-15T06:55:53.383Z,13.26
2022-10-15T06:58:21.161Z,13.28
2022-10-15T07:00:48.757Z,13.30
2022-10-15T07:03:16.913Z,13.36
2022-10-15T07:05:44.579Z,13.43
2022-10-15T07:08:16.845Z,13.48
2022-10-15T07:10:47.357Z,13.51
2022-10-15T07:13:16.265Z,13.51
2022-10-15T07:15:44.816Z,13.54
2022-10-15T07:18:12.719Z,13.59
2022-10-15T07:20:40.348Z,13.66
2022-10-15T07:23:08.369Z,13.76
2022-10-15T07:25:36.285Z,13.87
2022-10-15T07:28:04.006Z,13.98
2022-10-15T07:30:31.815Z,14.10
2022-10-15T07:32:59.480Z,14.24
2022-10-15T07:35:27.503Z,14.36
2022-10-15T07:37:55.169Z,14.48
2022-10-15T07:40:22.824Z,14.59
2022-10-15T07:42:50.780Z,14.70
2022-10-15T07:45:18.443Z,14.80
2022-10-15T07:47:46.447Z,14.90
2022-10-15T07:50:14.104Z,14.98
2022-10-15T07:52:41.712Z,15.04
2022-10-15T07:55:09.800Z,15.10
2022-10-15T07:57:37.457Z,15.17
2022-10-15T08:00:05.478Z,15.26
2022-10-15T08:02:33.230Z,15.35
2022-10-15T08:05:00.896Z,15.42
2022-10-15T08:07:28.878Z,15.50
2022-10-15T08:09:57.002Z,15.55
2022-10-15T08:12:25.424Z,15.62
2022-10-15T08:14:53.417Z,15.68
2022-10-15T08:17:21.138Z,15.81
2022-10-15T08:19:48.918Z,15.91
2022-10-15T08:22:16.673Z,16.01
2022-10-15T08:24:44.776Z,16.09
2022-10-15T08:27:12.475Z,16.15
2022-10-15T08:29:40.122Z,16.17
2022-10-15T08:32:10.015Z,16.18
2022-10-15T08:34:37.745Z,16.22
2022-10-15T08:37:05.800Z,16.29
2022-10-15T08:39:33.714Z,16.34
2022-10-15T08:42:01.487Z,16.38
2022-10-15T08:44:29.162Z,16.45
2022-10-15T08:46:56.904Z,16.56
2022-10-15T08:49:25.007Z,16.68
2022-10-15T08:51:53.739Z,16.74
2022-10-15T08:54:21.870Z,16.74
2022-10-15T08:56:49.547Z,16.69
2022-10-15T08:59:17.281Z,16.71
2022-10-15T09:01:45.092Z,16.73
2022-10-15T09:04:12.742Z,16.74
2022-10-15T09:06:40.474Z,16.81
2022-10-15T09:09:08.550Z,16.87
2022-10-15T09:11:36.214Z,16.97
2022-10-15T09:14:04.244Z,16.99
2022-10-15T09:16:32.108Z,17.02
2022-10-15T09:18:59.870Z,17.16
2022-10-15T09:21:28.162Z,17.28
2022-10-15T09:23:55.998Z,17.37
2022-10-15T09:26:24.026Z,17.51
2022-10-15T09:28:51.768Z,17.58
2022-10-15T09:31:19.558Z,17.61
2022-10-15T09:33:47.546Z,17.62
2022-10-15T09:36:15.839Z,17.60
2022-10-15T09:38:43.964Z,17.58
2022-10-15T09:41:16.800Z,17.60
2022-10-15T09:43:44.907Z,17.70
2022-10-15T09:46:13.291Z,17.83
2022-10-15T09:48:40.959Z,17.96
2022-10-15T09:51:09.191Z,18.03
2022-10-15T09:53:36.987Z,18.06
2022-10-15T09:56:04.756Z,18.09
2022-10-15T09:58:34.621Z,18.16
2022-10-15T10:01:02.348Z,18.47
2022-10-15T10:03:30.516Z,18.71
2022-10-15T10:05:58.462Z,18.89
2022-10-15T10:08:26.281Z,19.11
2022-10-15T10:10:54.410Z,19.31
2022-10-15T10:13:22.198Z,19.43
2022-10-15T10:15:51.942Z,19.62
2022-10-15T10:18:21.477Z,19.57
2022-10-15T10:20:49.886Z,19.56
2022-10-15T10:23:18.056Z,19.54
2022-10-15T10:25:45.797Z,19.43
2022-10-15T10:28:14.158Z,19.27
2022-10-15T10:30:42.897Z,19.16
2022-10-15T10:33:10.691Z,19.19
2022-10-15T10:35:38.901Z,19.10
2022-10-15T10:38:06.705Z,18.99
2022-10-15T10:40:34.883Z,18.91
2022-10-15T10:43:02.733Z,18.85
2022-10-15T10:45:30.441Z,18.77
2022-10-15T10:48:00.825Z,18.65
2022-10-15T10:50:28.722Z,18.62
2022-10-15T10:52:57.077Z,18.78
2022-10-15T10:55:25.765Z,19.01
2022-10-15T10:57:54.287Z,19.29
2022-10-15T11:00:22.110Z,19.58
2022-10-15T11:02:50.255Z,19.77
2022-10-15T11:05:18.426Z,19.90
2022-10-15T11:07:46.320Z,19.95
2022-10-15T11:10:14.114Z,19.95
2022-10-15T11:12:42.341Z,19.90
2022-10-15T11:15:10.028Z,19.77
2022-10-15T11:17:38.397Z,19.63
2022-10-15T11:20:27.024Z,19.51
2022-10-15T11:22:55.078Z,19.21
2022-10-15T11:25:22.809Z,18.94
2022-10-15T11:27:50.912Z,18.53
2022-10-15T11:30:18.720Z,18.11
2022-10-15T11:33:06.327Z,18.06
2022-10-15T11:35:52.023Z,18.21
2022-10-15T11:38:21.469Z,18.46
2022-10-15T11:40:49.294Z,18.84
2022-10-15T11:43:17.978Z,19.34
2022-10-15T11:45:48.826Z,19.66
2022-10-15T11:48:16.715Z,19.84
2022-10-15T11:50:44.958Z,19.95
2022-10-15T11:53:12.815Z,19.99
2022-10-15T11:55:40.563Z,20.19
2022-10-15T11:58:08.756Z,20.34
2022-10-15T12:00:36.592Z,20.48
2022-10-15T12:03:05.003Z,20.77
2022-10-15T12:05:33.314Z,21.09
2022-10-15T12:08:01.360Z,21.23
2022-10-15T12:10:29.311Z,21.26
2022-10-15T12:12:57.158Z,21.18
2022-10-15T12:15:25.359Z,21.00
2022-10-15T12:17:53.143Z,20.77
2022-10-15T12:20:20.900Z,20.87
2022-10-15T12:22:50.434Z,21.05
2022-10-15T12:25:18.329Z,21.21
2022-10-15T12:27:46.765Z,21.34
2022-10-15T12:30:14.698Z,21.44
2022-10-15T12:32:42.421Z,21.59
2022-10-15T12:35:10.507Z,21.76
2022-10-15T12:37:38.455Z,21.89
2022-10-15T12:40:06.174Z,21.89
2022-10-15T12:42:33.952Z,21.89
2022-10-15T12:45:02.995Z,21.83
2022-10-15T12:47:31.493Z,21.71
2022-10-15T12:49:59.352Z,21.60
2022-10-15T12:52:27.519Z,21.40
2022-10-15T12:54:58.956Z,21.11
2022-10-15T12:57:29.787Z,20.89
2022-10-15T12:59:58.406Z,20.74
2022-10-15T13:02:26.149Z,20.61
2022-10-15T13:04:54.427Z,20.47
2022-10-15T13:07:22.484Z,20.39
2022-10-15T13:09:50.511Z,20.30
2022-10-15T13:12:20.361Z,20.25
2022-10-15T13:14:48.696Z,20.16
2022-10-15T13:17:16.422Z,20.22
2022-10-15T13:19:44.352Z,20.30
2022-10-15T13:22:12.251Z,20.35
2022-10-15T13:24:40.311Z,20.36
2022-10-15T13:27:08.096Z,20.30
2022-10-15T13:29:36.254Z,20.22
2022-10-15T13:32:05.466Z,20.11
2022-10-15T13:34:33.799Z,19.97
2022-10-15T13:37:02.203Z,19.83
2022-10-15T13:39:30.035Z,19.73
2022-10-15T13:41:58.248Z,19.66
2022-10-15T13:44:26.029Z,19.63
2022-10-15T13:46:53.821Z,19.67
2022-10-15T13:49:24.194Z,19.69
2022-10-15T13:51:54.324Z,19.72
2022-10-15T13:54:22.630Z,19.74
2022-10-15T13:56:50.911Z,19.73
2022-10-15T13:59:19.132Z,19.71
2022-10-15T14:01:47.109Z,19.72
2022-10-15T14:04:14.908Z,19.68
2022-10-15T14:06:44.619Z,19.67
2022-10-15T14:09:12.574Z,19.70
2022-10-15T14:11:40.813Z,19.73
2022-10-15T14:14:09.093Z,19.72
2022-10-15T14:16:36.864Z,19.75
2022-10-15T14:19:05.193Z,19.79
2022-10-15T14:21:33.313Z,19.80
2022-10-15T14:24:01.378Z,19.85
2022-10-15T14:26:29.227Z,19.87
2022-10-15T14:28:57.523Z,19.80
2022-10-15T14:31:25.862Z,19.70
2022-10-15T14:33:53.710Z,19.61
2022-10-15T14:36:21.458Z,19.59
2022-10-15T14:38:49.784Z,19.57
2022-10-15T14:41:17.742Z,19.56
2022-10-15T14:43:46.908Z,19.52
2022-10-15T14:46:14.833Z,19.50
2022-10-15T14:48:42.778Z,19.45
2022-10-15T14:51:10.923Z,19.42
2022-10-15T14:53:38.716Z,19.39
2022-10-15T14:56:07.585Z,19.39
2022-10-15T14:58:35.399Z,19.39
2022-10-15T15:01:03.267Z,19.38
2022-10-15T15:03:31.500Z,19.37
2022-10-15T15:05:59.567Z,19.35
2022-10-15T15:08:27.852Z,19.33
2022-10-15T15:10:55.620Z,19.29
2022-10-15T15:13:23.512Z,19.26
2022-10-15T15:15:51.421Z,19.24
2022-10-15T15:18:19.257Z,19.57
2022-10-15T15:20:49.182Z,19.80
2022-10-15T15:23:17.538Z,19.88
2022-10-15T15:25:45.543Z,19.82
2022-10-15T15:28:13.573Z,19.71
2022-10-15T15:30:41.291Z,19.60
2022-10-15T15:33:09.746Z,19.50
2022-10-15T15:35:37.606Z,19.43
2022-10-15T15:38:05.402Z,19.36
2022-10-15T15:40:33.912Z,19.32
2022-10-15T15:43:01.826Z,19.29
2022-10-15T15:45:30.169Z,19.24
2022-10-15T15:48:02.405Z,19.20
2022-10-15T15:50:30.281Z,19.14
2022-10-15T15:52:58.493Z,19.10
2022-10-15T15:55:26.342Z,19.06
2022-10-15T15:57:54.535Z,19.04
2022-10-15T16:00:22.363Z,19.03
2022-10-15T16:02:52.949Z,18.97
2022-10-15T16:05:26.733Z,18.94
2022-10-15T16:07:54.760Z,18.92
2022-10-15T16:10:22.546Z,18.92
2022-10-15T16:12:50.345Z,18.91
2022-10-15T16:15:18.334Z,18.88
2022-10-15T16:17:46.349Z,18.87
2022-10-15T16:20:14.412Z,18.85
2022-10-15T16:22:42.905Z,18.82
2022-10-15T16:25:10.759Z,18.71
2022-10-15T16:27:39.123Z,18.49
2022-10-15T16:30:07.322Z,18.29
2022-10-15T16:32:35.461Z,18.14
2022-10-15T16:35:03.321Z,18.04
2022-10-15T16:37:31.139Z,17.95
2022-10-15T16:39:59.087Z,17.89
2022-10-15T16:42:27.035Z,17.79
2022-10-15T16:44:55.258Z,17.69
2022-10-15T16:47:23.254Z,17.58
2022-10-15T16:49:51.232Z,17.46
2022-10-15T16:52:19.100Z,17.35
2022-10-15T16:54:47.685Z,17.29
2022-10-15T16:57:15.818Z,17.24
2022-10-15T16:59:43.746Z,17.20
2022-10-15T17:02:11.844Z,17.19
2022-10-15T17:04:40.056Z,17.20
2022-10-15T17:07:08.390Z,17.20
2022-10-15T17:09:36.717Z,17.19
2022-10-15T17:12:05.046Z,17.17
2022-10-15T17:14:32.827Z,17.14
2022-10-15T17:17:00.608Z,17.12
2022-10-15T17:19:31.778Z,17.09
2022-10-15T17:22:02.225Z,17.07
2022-10-15T17:24:29.988Z,17.08
2022-10-15T17:26:58.397Z,17.09
2022-10-15T17:29:29.146Z,17.12
2022-10-15T17:32:01.480Z,17.15
2022-10-15T17:34:29.825Z,17.19
2022-10-15T17:36:57.730Z,17.21
2022-10-15T17:39:25.505Z,17.21
2022-10-15T17:41:53.475Z,17.22
2022-10-15T17:44:21.715Z,17.23
2022-10-15T17:46:49.948Z,17.23
2022-10-15T17:49:19.021Z,17.22
2022-10-15T17:51:46.840Z,17.19
2022-10-15T17:54:15.047Z,17.11
2022-10-15T17:56:43.322Z,17.02
2022-10-15T17:59:11.603Z,16.95
2022-10-15T18:01:57.968Z,16.93
2022-10-15T18:04:26.530Z,16.91
2022-10-15T18:06:54.652Z,16.88
2022-10-15T18:09:22.491Z,16.87
2022-10-15T18:11:50.734Z,16.85
2022-10-15T18:16:51.711Z,16.82
2022-10-15T18:19:19.755Z,16.82
2022-10-15T18:21:49.610Z,16.82
2022-10-15T18:24:20.235Z,16.81
2022-10-15T18:26:48.223Z,16.80
2022-10-15T18:29:16.104Z,16.79
2022-10-15T18:31:44.387Z,16.79
2022-10-15T18:34:12.773Z,16.77
2022-10-15T18:36:42.569Z,16.77
2022-10-15T18:39:10.466Z,16.76
2022-10-15T18:41:40.201Z,16.74
2022-10-15T18:44:08.399Z,16.72
2022-10-15T18:46:36.742Z,16.69
2022-10-15T18:49:04.542Z,16.63
2022-10-15T18:51:32.333Z,16.57
2022-10-15T18:54:00.369Z,16.53
2022-10-15T18:56:29.806Z,16.49
2022-10-15T18:58:58.048Z,16.44
2022-10-15T19:01:26.082Z,16.41
2022-10-15T19:03:54.023Z,16.33
2022-10-15T19:06:21.923Z,16.29
2022-10-15T19:08:50.176Z,16.28
2022-10-15T19:11:18.686Z,16.26
2022-10-15T19:13:46.596Z,16.24
2022-10-15T19:16:14.658Z,16.19
2022-10-15T19:18:42.516Z,16.12
2022-10-15T19:21:10.530Z,16.03
2022-10-15T19:23:39.018Z,15.95
2022-10-15T19:26:06.978Z,15.87
2022-10-15T19:28:34.901Z,15.83
2022-10-15T19:31:02.760Z,15.79
2022-10-15T19:33:31.437Z,15.73
2022-10-15T19:35:59.586Z,15.68
2022-10-15T19:38:27.877Z,15.61
2022-10-15T19:40:56.114Z,15.58
2022-10-15T19:43:24.028Z,15.57
2022-10-15T19:45:51.976Z,15.56
2022-10-15T19:48:20.321Z,15.58
2022-10-15T19:50:48.113Z,15.59
2022-10-15T19:53:16.708Z,15.59
2022-10-15T19:55:44.729Z,15.59
2022-10-15T19:58:13.041Z,15.58
2022-10-15T20:00:41.360Z,15.57
2022-10-15T20:03:09.952Z,15.55
2022-10-15T20:05:37.796Z,15.54
2022-10-15T20:08:05.776Z,15.53
2022-10-15T20:10:33.642Z,15.52
2022-10-15T20:13:01.839Z,15.49
2022-10-15T20:15:29.980Z,15.50
2022-10-15T20:17:57.839Z,15.47
2022-10-15T20:20:25.656Z,15.46
2022-10-15T20:22:53.799Z,15.44
2022-10-15T20:25:22.557Z,15.43
2022-10-15T20:27:50.471Z,15.42
2022-10-15T20:30:18.293Z,15.40
2022-10-15T20:32:46.776Z,15.40
2022-10-15T20:35:14.696Z,15.40
2022-10-15T20:37:43.086Z,15.40
2022-10-15T20:40:10.933Z,15.42
2022-10-15T20:42:38.850Z,15.44
2022-10-15T20:45:06.647Z,15.44
2022-10-15T20:47:34.961Z,15.42
2022-10-15T20:50:03.327Z,15.41
2022-10-15T20:52:31.639Z,15.40
2022-10-15T20:54:59.530Z,15.40
2022-10-15T20:57:27.490Z,15.37
2022-10-15T20:59:55.605Z,15.36
2022-10-15T21:02:23.945Z,15.34
2022-10-15T21:04:53.587Z,15.34
2022-10-15T21:09:54.665Z,15.32
2022-10-15T21:12:22.756Z,15.31
2022-10-15T21:14:51.120Z,15.32
2022-10-15T21:17:19.030Z,15.34
2022-10-15T21:19:50.365Z,15.37
2022-10-15T21:22:20.569Z,15.37
2022-10-15T21:24:48.692Z,15.38
2022-10-15T21:27:16.762Z,15.38
2022-10-15T21:29:45.687Z,15.39
2022-10-15T21:32:13.603Z,15.37
2022-10-15T21:37:09.078Z,15.32
2022-10-15T21:39:37.255Z,15.29
2022-10-15T21:42:05.006Z,15.26
2022-10-15T21:44:33.754Z,15.25
2022-10-15T21:47:01.547Z,15.25
2022-10-15T21:49:29.412Z,15.26
2022-10-15T21:51:57.614Z,15.27
2022-10-15T21:54:25.323Z,15.27
2022-10-15T21:56:53.155Z,15.26
2022-10-15T21:59:20.864Z,15.25
2022-10-15T22:01:48.925Z,15.27
2022-10-15T22:04:17.287Z,15.25
2022-10-15T22:06:45.062Z,15.24
2022-10-15T22:09:12.947Z,15.23
2022-10-15T22:11:41.059Z,15.23
2022-10-15T22:14:09.138Z,15.22
2022-10-15T22:16:37.310Z,15.22
2022-10-15T22:19:05.104Z,15.24
2022-10-15T22:21:32.796Z,15.25
2022-10-15T22:24:00.594Z,15.26
2022-10-15T22:26:28.581Z,15.26
2022-10-15T22:28:56.674Z,15.28
2022-10-15T22:31:24.580Z,15.28
2022-10-15T22:33:52.718Z,15.31
2022-10-15T22:36:20.485Z,15.31
2022-10-15T22:38:48.564Z,15.29
2022-10-15T22:41:16.768Z,15.26
2022-10-15T22:43:44.463Z,15.26
2022-10-15T22:46:12.243Z,15.24
2022-10-15T22:48:39.931Z,15.22
2022-10-15T22:51:07.949Z,15.20
2022-10-15T22:53:36.069Z,15.19
2022-10-15T22:56:04.330Z,15.16
2022-10-15T22:58:32.096Z,15.16
2022-10-15T23:00:59.877Z,15.14
2022-10-15T23:03:28.001Z,15.13
2022-10-15T23:05:56.124Z,15.14
2022-10-15T23:08:23.840Z,15.15
2022-10-15T23:10:51.475Z,15.15
2022-10-15T23:13:19.171Z,15.15
2022-10-15T23:15:46.881Z,15.15
2022-10-15T23:18:14.967Z,15.13
2022-10-15T23:20:42.636Z,15.08
2022-10-15T23:23:10.347Z,15.05
2022-10-15T23:25:37.996Z,15.03
2022-10-15T23:28:05.610Z,15.01
2022-10-15T23:30:33.306Z,15.01
2022-10-15T23:33:00.965Z,15.01
2022-10-15T23:35:28.597Z,14.99
2022-10-15T23:37:56.327Z,14.98
2022-10-15T23:40:25.399Z,14.95
2022-10-15T23:42:52.986Z,14.95
2022-10-15T23:45:20.651Z,14.94
2022-10-15T23:47:48.411Z,14.92
2022-10-15T23:50:16.000Z,14.88
2022-10-15T23:52:44.002Z,14.86
2022-10-15T23:55:12.044Z,14.83
2022-10-15T23:57:39.659Z,14.80
